createdAt,value
2022-10-16T00:02:14.339Z,14.28
2022-10-16T00:07:17.420Z,14.28
2022-10-16T00:12:20.256Z,14.24
2022-10-16T00:17:23.130Z,14.18
2022-10-16T00:22:26.243Z,14.13
2022-10-16T00:27:29.344Z,14.09
2022-10-16T00:32:32.248Z,14.09
2022-10-16T00:37:35.155Z,14.11
2022-10-16T00:42:38.266Z,14.16
2022-10-16T00:47:46.414Z,14.20
2022-10-16T00:52:52.163Z,14.21
2022-10-16T00:57:55.743Z,14.23
2022-10-16T01:03:02.218Z,14.25
2022-10-16T01:08:18.830Z,14.28
2022-10-16T01:13:31.835Z,14.31
2022-10-16T01:18:46.078Z,14.33
2022-10-16T01:23:48.789Z,14.31
2022-10-16T01:29:01.500Z,14.33
2022-10-16T01:34:15.608Z,14.35
2022-10-16T01:39:23.400Z,14.37
2022-10-16T01:44:32.166Z,14.38
2022-10-16T01:49:38.826Z,14.39
2022-10-16T01:54:45.245Z,14.38
2022-10-16T01:59:53.989Z,14.34
2022-10-16T02:05:05.918Z,14.30
2022-10-16T02:10:10.365Z,14.29
2022-10-16T02:15:13.152Z,14.31
2022-10-16T02:20:16.363Z,14.29
2022-10-16T02:25:28.378Z,14.25
2022-10-16T02:30:49.613Z,14.26
2022-10-16T02:35:53.845Z,14.25
2022-10-16T02:40:57.332Z,14.23
2022-10-16T02:46:00.575Z,14.24
2022-10-16T02:51:03.479Z,14.24
2022-10-16T02:56:06.532Z,14.24
2022-10-16T03:01:09.569Z,14.22
2022-10-16T03:06:12.906Z,14.19
2022-10-16T03:11:16.219Z,14.20
2022-10-16T03:16:19.227Z,14.19
2022-10-16T03:21:22.028Z,14.21
2022-10-16T03:26:24.841Z,14.21
2022-10-16T03:31:27.569Z,14.18
2022-10-16T03:36:30.844Z,14.11
2022-10-16T03:41:33.651Z,14.00
2022-10-16T03:46:36.447Z,13.86
2022-10-16T03:51:39.353Z,13.74
2022-10-16T03:56:42.152Z,13.63
2022-10-16T04:01:45.063Z,13.51
2022-10-16T04:06:47.862Z,13.39
2022-10-16T04:11:51.172Z,13.28
2022-10-16T04:16:54.287Z,13.19
2022-10-16T04:21:57.089Z,13.07
2022-10-16T04:26:59.890Z,12.95
2022-10-16T04:32:02.689Z,12.86
2022-10-16T04:37:05.492Z,12.77
2022-10-16T04:42:08.227Z,12.69
2022-10-16T04:47:11.093Z,12.63
2022-10-16T04:52:13.896Z,12.63
2022-10-16T04:57:16.610Z,12.66
2022-10-16T05:02:19.499Z,12.70
2022-10-16T05:07:22.717Z,12.72
2022-10-16T05:12:25.857Z,12.78
2022-10-16T05:17:29.152Z,12.87
2022-10-16T05:22:32.240Z,12.97
2022-10-16T05:27:35.042Z,13.23
2022-10-16T05:32:37.844Z,13.64
2022-10-16T05:37:40.648Z,13.82
2022-10-16T05:42:43.431Z,14.19
2022-10-16T05:47:46.254Z,14.39
2022-10-16T05:52:49.054Z,14.20
2022-10-16T05:57:51.858Z,14.05
2022-10-16T06:02:54.864Z,13.96
2022-10-16T06:07:57.666Z,14.00
2022-10-16T06:13:00.776Z,14.01
2022-10-16T06:18:03.674Z,14.00
2022-10-16T06:23:06.477Z,13.98
2022-10-16T06:28:09.279Z,14.00
2022-10-16T06:33:12.455Z,14.04
2022-10-16T06:38:15.198Z,14.04
2022-10-16T06:43:17.997Z,14.14
2022-10-16T06:48:21.580Z,14.27
2022-10-16T06:53:25.132Z,14.44
2022-10-16T06:58:27.940Z,14.61
2022-10-16T07:03:30.943Z,14.73
2022-10-16T07:08:35.422Z,14.79
2022-10-16T07:13:40.384Z,14.82
2022-10-16T07:18:46.178Z,14.92
2022-10-16T07:23:53.130Z,15.01
2022-10-16T07:28:56.155Z,15.10
2022-10-16T07:34:01.155Z,15.16
2022-10-16T07:39:05.179Z,15.39
2022-10-16T07:44:08.106Z,15.67
2022-10-16T07:49:10.908Z,15.88
2022-10-16T07:54:13.705Z,16.05
2022-10-16T07:59:16.512Z,16.08
2022-10-16T08:04:19.307Z,16.09
2022-10-16T08:09:22.211Z,16.09
2022-10-16T08:14:25.524Z,15.98
2022-10-16T08:19:28.328Z,15.90
2022-10-16T08:24:32.458Z,15.93
2022-10-16T08:29:35.466Z,16.01
2022-10-16T08:34:38.267Z,16.26
2022-10-16T08:39:41.068Z,16.48
2022-10-16T08:44:49.913Z,16.53
2022-10-16T08:50:14.833Z,16.56
2022-10-16T08:55:48.252Z,16.64
2022-10-16T09:00:55.915Z,16.88
2022-10-16T09:06:12.094Z,17.26
2022-10-16T09:11:50.526Z,17.50
2022-10-16T09:17:04.845Z,17.75
2022-10-16T09:22:17.223Z,17.97
2022-10-16T09:27:20.026Z,18.00
2022-10-16T09:32:24.293Z,17.91
2022-10-16T09:37:27.948Z,17.78
2022-10-16T09:42:38.056Z,17.58
2022-10-16T09:47:43.824Z,17.20
2022-10-16T09:52:46.629Z,17.05
2022-10-16T09:57:56.291Z,17.27
2022-10-16T10:02:59.095Z,17.83
2022-10-16T10:08:09.458Z,17.87
2022-10-16T10:13:23.849Z,17.67
2022-10-16T10:18:27.567Z,17.70
2022-10-16T10:23:31.988Z,18.29
2022-10-16T10:28:56.230Z,19.48
2022-10-16T10:33:59.013Z,20.24
2022-10-16T10:39:04.128Z,20.83
2022-10-16T10:44:44.912Z,22.05
2022-10-16T10:49:56.878Z,23.65
2022-10-16T10:55:34.395Z,25.18
2022-10-16T11:01:00.238Z,26.77
2022-10-16T11:06:08.772Z,26.23
2022-10-16T11:11:25.503Z,24.43
2022-10-16T11:16:40.285Z,22.99
2022-10-16T11:21:55.278Z,21.52
2022-10-16T11:27:05.900Z,20.57
2022-10-16T11:32:25.042Z,19.86
2022-10-16T11:37:39.416Z,19.46
2022-10-16T11:42:49.796Z,19.48
2022-10-16T11:48:26.082Z,19.75
2022-10-16T11:54:03.293Z,20.26
2022-10-16T11:59:21.460Z,20.50
2022-10-16T12:04:35.827Z,21.00
2022-10-16T12:09:41.599Z,20.99
2022-10-16T12:15:11.328Z,20.48
2022-10-16T12:20:12.801Z,20.19
2022-10-16T12:25:23.797Z,20.33
2022-10-16T12:30:32.291Z,20.80
2022-10-16T12:35:46.334Z,21.25
2022-10-16T12:41:00.374Z,21.61
2022-10-16T12:46:22.706Z,21.09
2022-10-16T12:51:31.679Z,20.26
2022-10-16T12:56:59.865Z,19.71
2022-10-16T13:02:34.617Z,19.46
2022-10-16T13:08:01.282Z,19.89
2022-10-16T13:13:07.153Z,20.10
2022-10-16T13:18:34.392Z,20.06
2022-10-16T13:24:04.569Z,20.07
2022-10-16T13:29:07.830Z,20.04
2022-10-16T13:34:29.758Z,19.87
2022-10-16T13:39:32.639Z,19.61
2022-10-16T13:44:48.622Z,19.33
2022-10-16T13:50:06.625Z,19.08
2022-10-16T13:55:14.836Z,18.90
2022-10-16T14:00:31.308Z,18.84
2022-10-16T14:05:35.697Z,18.81
2022-10-16T14:10:39.526Z,18.76
2022-10-16T14:15:48.808Z,18.76
2022-10-16T14:20:52.091Z,18.76
2022-10-16T14:25:55.100Z,18.73
2022-10-16T14:30:59.338Z,18.69
2022-10-16T14:36:11.862Z,18.63
2022-10-16T14:41:14.975Z,18.69
2022-10-16T14:51:24.904Z,18.64
2022-10-16T14:56:33.326Z,18.53
2022-10-16T15:01:36.419Z,18.39
2022-10-16T15:06:39.224Z,18.25
2022-10-16T15:11:43.134Z,18.14
2022-10-16T15:16:47.078Z,18.06
2022-10-16T15:21:50.330Z,17.95
2022-10-16T15:26:53.197Z,17.87
2022-10-16T15:31:55.997Z,17.84
2022-10-16T15:36:59.618Z,17.73
2022-10-16T15:42:02.420Z,17.63
2022-10-16T15:47:05.322Z,17.54
2022-10-16T15:52:08.088Z,17.46
2022-10-16T15:57:10.926Z,17.37
2022-10-16T16:02:13.842Z,17.29
2022-10-16T16:07:17.138Z,17.20
2022-10-16T16:12:20.048Z,17.12
2022-10-16T16:17:23.054Z,17.04
2022-10-16T16:22:26.358Z,16.94
2022-10-16T16:27:31.273Z,16.81
2022-10-16T16:32:35.849Z,16.67
2022-10-16T16:37:38.665Z,16.54
2022-10-16T16:42:41.471Z,16.43
2022-10-16T16:47:44.215Z,16.35
2022-10-16T16:52:46.969Z,16.27
2022-10-16T16:57:49.767Z,16.21
2022-10-16T17:02:52.883Z,16.14
2022-10-16T17:07:55.681Z,16.07
2022-10-16T17:12:58.501Z,16.01
2022-10-16T17:18:01.285Z,15.95
2022-10-16T17:23:04.043Z,15.90
2022-10-16T17:28:08.628Z,15.86
2022-10-16T17:33:12.495Z,15.81
2022-10-16T17:38:16.892Z,15.76
2022-10-16T17:43:19.743Z,15.73
2022-10-16T17:48:22.601Z,15.72
2022-10-16T17:53:25.401Z,15.75
2022-10-16T18:03:32.031Z,15.74
2022-10-16T18:08:36.879Z,15.70
2022-10-16T18:13:40.193Z,15.67
2022-10-16T18:18:47.294Z,15.68
2022-10-16T18:23:51.849Z,15.67
2022-10-16T18:28:57.485Z,15.62
2022-10-16T18:34:00.720Z,15.54
2022-10-16T18:39:11.300Z,15.49
2022-10-16T18:44:14.770Z,15.45
2022-10-16T18:49:17.622Z,15.43
2022-10-16T18:54:20.938Z,15.42
2022-10-16T18:59:24.264Z,15.40
2022-10-16T19:04:27.052Z,15.42
2022-10-16T19:09:30.059Z,15.46
2022-10-16T19:14:32.964Z,15.56
2022-10-16T19:19:38.327Z,15.66
2022-10-16T19:24:41.656Z,15.74
2022-10-16T19:29:44.543Z,15.77
2022-10-16T19:34:51.273Z,15.74
2022-10-16T19:39:54.142Z,15.70
2022-10-16T19:44:56.945Z,15.66
2022-10-16T19:49:59.745Z,15.59
2022-10-16T19:55:02.853Z,15.51
2022-10-16T20:00:07.450Z,15.45
2022-10-16T20:05:10.504Z,15.37
2022-10-16T20:10:13.306Z,15.28
2022-10-16T20:15:16.419Z,15.19
2022-10-16T20:20:19.329Z,15.12
2022-10-16T20:25:22.327Z,15.03
2022-10-16T20:30:25.233Z,14.96
2022-10-16T20:35:28.543Z,14.89
2022-10-16T20:40:33.907Z,14.81
2022-10-16T20:45:36.710Z,14.74
2022-10-16T20:50:41.205Z,14.68
2022-10-16T20:55:44.258Z,14.60
2022-10-16T21:00:47.160Z,14.54
2022-10-16T21:05:50.475Z,14.48
2022-10-16T21:10:53.276Z,14.40
2022-10-16T21:15:56.081Z,14.34
2022-10-16T21:20:58.881Z,14.24
2022-10-16T21:26:01.784Z,14.14
2022-10-16T21:31:15.875Z,14.05
2022-10-16T21:36:21.930Z,13.97
2022-10-16T21:41:27.803Z,13.88
2022-10-16T21:46:32.987Z,13.79
2022-10-16T21:51:42.008Z,13.71
2022-10-16T21:56:45.017Z,13.63
2022-10-16T22:01:48.551Z,13.57
2022-10-16T22:06:51.444Z,13.52
2022-10-16T22:11:54.650Z,13.46
2022-10-16T22:16:57.653Z,13.39
2022-10-16T22:22:01.484Z,13.34
2022-10-16T22:27:04.489Z,13.29
2022-10-16T22:32:08.007Z,13.26
2022-10-16T22:37:11.012Z,13.20
2022-10-16T22:42:13.821Z,13.12
2022-10-16T22:47:17.545Z,13.07
2022-10-16T22:52:20.547Z,13.03
2022-10-16T22:57:23.861Z,13.01
2022-10-16T23:02:26.944Z,12.99
2022-10-16T23:07:31.619Z,12.95
2022-10-16T23:12:36.257Z,12.94
2022-10-16T23:17:39.061Z,12.93
2022-10-16T23:22:41.967Z,12.93
2022-10-16T23:27:44.868Z,12.93
2022-10-16T23:32:48.278Z,12.90
2022-10-16T23:37:51.709Z,12.88
2022-10-16T23:42:54.505Z,12.85
2022-10-16T23:47:57.302Z,12.83
2022-10-16T23:53:00.108Z,12.82
2022-10-16T23:58:03.486Z,12.81
